Flight Track Log - Related Links

Times and Time Zones

All times are in EDT time to prevent confusion due to time zone crossing. See the CTL16 flight status page for this flight to view local times or setup timezone preferences in your user account.

Time Position Orientation Groundspeed Altitude Reporting Facility
EDT Latitude Longitude Course Direction KTS MPH feet Rate Location/Type
Wed 08:40:34 PM 39.3833 -84.4667 36° Northeast 143 165 1,700  Level Cincinnati TRACON
Wed 08:41:03 PM 39.3997 -84.4511 36° Northeast 146 168 2,000 814 Climbing Indianapolis Center
Wed 08:41:33 PM 39.4139 -84.4342 43° Northeast 151 174 2,500 563 Climbing Indianapolis Center
Wed 08:42:07 PM 39.4283 -84.4094 53° Northeast 159 183 2,600 492 Climbing Indianapolis Center
Wed 08:42:34 PM 39.4447 -84.3897 43° Northeast 161 185 3,000 677 Climbing Indianapolis Center
Wed 08:43:09 PM 39.4603 -84.3653 50° Northeast 162 186 3,300 590 Climbing Indianapolis Center
Wed 08:43:35 PM 39.4778 -84.3428 45° Northeast 169 194 3,600 590 Climbing Indianapolis Center
Wed 08:44:10 PM 39.4900 -84.3189 56° Northeast 166 191 3,900 393 Climbing Indianapolis Center
Wed 08:44:36 PM 39.5047 -84.2950 51° Northeast 168 193 4,000 393 Climbing Indianapolis Center
Wed 08:45:11 PM 39.5200 -84.2706 51° Northeast 168 193 4,300 545 Climbing Indianapolis Center
Wed 08:45:31 PM 39.5353 -84.2531 41° Northeast 174 200 4,500 387 Climbing Indianapolis Center
Wed 08:46:13 PM 39.5533 -84.2239 51° Northeast 172 198 4,700 400 Climbing Indianapolis Center
Wed 08:46:31 PM 39.5664 -84.2031 51° Northeast 175 201 4,900 295 Climbing Indianapolis Center
Wed 08:47:14 PM 39.5850 -84.1756 49° Northeast 173 199 5,000 269 Climbing Indianapolis Center
Wed 08:47:38 PM 39.6039 -84.1536 42° Northeast 178 205 5,200 484 Climbing Indianapolis Center
Wed 08:48:16 PM 39.6211 -84.1297 47° Northeast 176 203 5,500 327 Climbing Indianapolis Center
Wed 08:48:33 PM 39.6364 -84.1119 42° Northeast 183 211 5,500 197 Level Indianapolis Center
Wed 08:49:17 PM 39.6581 -84.0828 46° Northeast 180 207 5,700 304 Climbing Indianapolis Center
Wed 08:49:52 PM 39.6811 -84.0500 48° Northeast 182 209 5,900 295 Climbing Indianapolis Center
Wed 08:50:18 PM 39.6950 -84.0347 40° Northeast 184 212 6,000 222 Climbing Indianapolis Center
Wed 08:50:46 PM 39.7161 -84.0056 47° Northeast 186 214 6,100 295 Climbing Indianapolis Center
Wed 08:51:19 PM 39.7375 -83.9767 46° Northeast 187 215 6,300 295 Climbing Indianapolis Center
Wed 08:51:47 PM 39.7533 -83.9561 45° Northeast 194 223 6,400 194 Climbing Indianapolis Center
Wed 08:52:21 PM 39.7739 -83.9256 49° Northeast 189 217 6,500 197 Climbing Indianapolis Center
Wed 08:52:48 PM 39.7906 -83.9067 41° Northeast 191 220 6,600 393 Climbing Indianapolis Center
Wed 08:53:22 PM 39.8131 -83.8767 46° Northeast 191 220 6,900 400 Climbing Indianapolis Center
Wed 08:53:48 PM 39.8322 -83.8550 41° Northeast 192 221 7,000 197 Climbing Indianapolis Center
Wed 08:54:23 PM 39.8522 -83.8283 46° Northeast 192 221 7,100 109 Climbing Indianapolis Center
Wed 08:54:43 PM 39.8647 -83.8131 43° Northeast 195 224 7,100 -97 Level Indianapolis Center
Wed 08:55:25 PM 39.8936 -83.7769 44° Northeast 197 227 7,000  Descending Indianapolis Center
Wed 08:55:49 PM 39.9133 -83.7539 42° Northeast 208 239 7,100 98 Climbing Indianapolis Center
Wed 08:56:26 PM 39.9364 -83.7242 45° Northeast 204 235 7,100 -98 Level Indianapolis Center
Wed 08:56:50 PM 39.9528 -83.7017 46° Northeast 204 235 7,000 -98 Descending Indianapolis Center
Wed 08:57:27 PM 39.9775 -83.6708 44° Northeast 205 236 7,000  Level Indianapolis Center
Wed 08:57:51 PM 39.9942 -83.6497 44° Northeast 203 234 7,000  Level Indianapolis Center
Wed 08:58:28 PM 40.0194 -83.6192 43° Northeast 204 235 7,000  Level Indianapolis Center
Wed 08:58:58 PM 40.0403 -83.5928 44° Northeast 205 236 7,000  Level Indianapolis Center
Wed 08:59:29 PM 40.0606 -83.5661 45° Northeast 204 235 7,000  Level Indianapolis Center
Wed 08:59:58 PM 40.0778 -83.5375 52° Northeast 202 232 7,000  Level Indianapolis Center
Wed 09:00:31 PM 40.0958 -83.5075 52° Northeast 203 234 7,000  Level Indianapolis Center
Wed 09:00:53 PM 40.1111 -83.4842 49° Northeast 202 232 7,000  Level Indianapolis Center
Wed 09:01:32 PM 40.1358 -83.4547 42° Northeast 202 232 7,000  Level Indianapolis Center
Wed 09:01:53 PM 40.1525 -83.4319 46° Northeast 205 236 7,000  Level Indianapolis Center
Wed 09:02:33 PM 40.1781 -83.4028 41° Northeast 204 235 7,000  Level Indianapolis Center
Wed 09:02:54 PM 40.1939 -83.3825 44° Northeast 203 234 7,000  Level Indianapolis Center
Wed 09:03:34 PM 40.2197 -83.3514 43° Northeast 203 234 7,000  Level Indianapolis Center
Wed 09:04:01 PM 40.2394 -83.3278 42° Northeast 205 236 7,000  Level Indianapolis Center
Wed 09:04:36 PM 40.2625 -83.3000 43° Northeast 207 238 7,000  Level Indianapolis Center
Wed 09:05:08 PM 40.2856 -83.2678 47° Northeast 203 234 7,000  Level Indianapolis Center
Wed 09:05:37 PM 40.3031 -83.2481 41° Northeast 203 234 7,000  Level Indianapolis Center
Wed 09:06:08 PM 40.3267 -83.2181 44° Northeast 203 234 7,000  Level Indianapolis Center
Wed 09:06:38 PM 40.3439 -83.1953 45° Northeast 204 235 7,000  Level Indianapolis Center
Wed 09:07:39 PM 40.3853 -83.1447 43° Northeast 202 232 7,000  Level Indianapolis Center
Wed 09:08:41 PM 40.4261 -83.0933 44° Northeast 201 231 7,000  Level Indianapolis Center
Wed 09:09:42 PM 40.4592 -83.0342 54° Northeast 200 230 7,000  Level Indianapolis Center
Wed 09:10:43 PM 40.4925 -82.9756 53° Northeast 199 229 7,000  Level Indianapolis Center
Wed 09:11:44 PM 40.5306 -82.9078 54° Northeast 201 231 7,000  Level Indianapolis Center
Wed 09:12:45 PM 40.5617 -82.8472 56° Northeast 199 229 7,000  Level Indianapolis Center
Wed 09:13:47 PM 40.5936 -82.7872 55° Northeast 198 228 7,000  Level Indianapolis Center
Wed 09:14:48 PM 40.6253 -82.7278 55° Northeast 198 228 7,000 65 Level Indianapolis Center
Wed 09:15:20 PM 40.6394 -82.7008 55° Northeast 198 228 7,100 65 Climbing Cleveland Center
Wed 09:16:21 PM 40.6739 -82.6444 51° Northeast 197 227 7,100  Level Cleveland Center
Wed 09:17:15 PM 40.7019 -82.5906 56° Northeast 197 227 7,100  Level Cleveland Center
Wed 09:18:04 PM 40.7300 -82.5394 54° Northeast 198 228 7,100 -149 Level Cleveland Center
Wed 09:19:16 PM 40.7708 -82.4667 53° Northeast 221 254 6,800 -226 Descending Cleveland Center
Wed 09:20:17 PM 40.8050 -82.4072 53° Northeast 210 242 6,600 -259 Descending Cleveland Center
Wed 09:21:12 PM 40.8372 -82.3506 53° Northeast 209 241 6,300 -261 Descending Cleveland Center
Wed 09:22:12 PM 40.8717 -82.2883 54° Northeast 208 239 6,100 -236 Descending Cleveland Center
Wed 09:23:19 PM 40.9058 -82.2233 55° Northeast 206 237 5,800 -403 Descending Cleveland Center
Wed 09:24:26 PM 40.9486 -82.1528 51° Northeast 213 245 5,200 -331 Descending Cleveland Center
Wed 09:25:26 PM 40.9850 -82.0878 53° Northeast 210 242 5,100 -50 Descending Cleveland Center
Wed 09:26:27 PM 41.0147 -82.0278 57° Northeast 200 230 5,100  Level Cleveland Center
Wed 09:27:27 PM 41.0508 -81.9708 50° Northeast 201 231 5,100  Level Cleveland Center
Wed 09:28:22 PM 41.0808 -81.9164 54° Northeast 202 232 5,100 -155 Level Cleveland Center
Wed 09:29:23 PM 41.1189 -81.8592 49° Northeast 209 241 4,800 -378 Descending Cleveland Center
Wed 09:30:29 PM 41.1797 -81.8219 25° Northeast 216 249 4,300 -331 Descending Cleveland Center
Wed 09:31:30 PM 41.2303 -81.7869 28° Northeast 197 227 4,100 -98 Descending Cleveland Center
Wed 09:32:31 PM 41.2661 -81.7350 47° Northeast 186 214 4,100 -397 Level Cleveland Center
Wed 09:33:31 PM 41.3064 -81.6833 44° Northeast 202 232 3,300 -522 Descending Cleveland Center
Wed 09:34:26 PM 41.3381 -81.6394 46° Northeast 188 216 3,100 -495 Descending Cleveland Center
Wed 09:35:20 PM 41.3861 -81.6264 12° North 212 244 2,400 -678 Descending Cleveland Center
Wed 09:36:21 PM 41.4422 -81.6442 347° North 211 243 1,800 -393 Descending Cleveland Center
Wed 09:37:22 PM 41.4919 -81.6697 339° North 170 196 1,600 -347 Descending Cleveland Center
Wed 09:38:22 PM 41.5231 -81.7036 321° Northwest 135 155 1,100 -500 Descending Cleveland Center
Wed 09:40:00 PM 41.5175 -81.6833 27° Northeast  Level Estimated

Login

Don't have an account? Register now (free) for customized features, flight alerts, and more!